Detall de PIREP

Printer-friendly versionPDF version

[2013/03/08 16:53:00]
Flight IATA:CT2100
Pilot Number:044
Company ICAO:CAT
Aircraft Type:AT72/F
PAX:40
Departing Airport: LEVC
Destination Airport: LEAS
Alternate Airport:LEXJ
Online: VATSIM
Route:CENTA A33 ZMR/F200 R107 XONDA
Flight Level:F210
No Slew and time accel
No pause
Crash detect
Detect pilot in Cockpit between each 30 and 45 minutes
16:53 Zero fuel Weight: 39662 Lbs, Fuel Weight: 5546 Lbs
16:53 VATSIM:LEVC 081630Z 27015KT 9999 FEW025 SCT035 20/09 Q1006 NOSIG
16:53 VATSIM:LEAS 081630Z 27009KT 240V300 9999 FEW025 SCT080 15/06 Q1001 TEMPO SHRA SCT030TCU
16:54 VOICE CATALONIAN
17:01 Parking Brakes off
17:13 Take-off
17:13 Take off Weight: 45034 Lbs
17:13 Wind: 273º @ 013 Knots Heading: 293º
17:13 POS N39º 29´ 22´´ W000º 28´ 58´´
17:13 Flaps:1 at 141 Knots
17:13 Gear Up: 139 Knots
17:14 Flaps:0 at 135 Knots
17:28 Wind:255º@034 Knots Heading: 291º Ground Speed: 197 Knots Altitude 18976 ft
17:30 TOC
17:30 Fuel Weight: 4844 Lb
17:43 Wind:193º@016 Knots Heading: 294º Ground Speed: 285 Knots Altitude 20830 ft
17:58 Wind:193º@014 Knots Heading: 293º Ground Speed: 286 Knots Altitude 20839 ft
18:13 Wind:217º@029 Knots Heading: 289º Ground Speed: 276 Knots Altitude 20784 ft
18:17 TOD
18:17 Fuel Weight: 3466 Lb
18:28 Wind:210º@032 Knots Heading: 346º Ground Speed: 308 Knots Altitude 19701 ft
18:41 Flaps:1 at 176 Knots
18:43 Wind:112º@003 Knots Heading: 342º Ground Speed: 239 Knots Altitude 1505 ft
18:43 Gear Down: 244 Knots
18:46 Flaps:0 at 172 Knots
18:46 Flaps:2 at 172 Knots
18:48 Flaps:1 at 144 Knots
18:49 Flaps:2 at 163 Knots
18:49 Flaps:0 at 163 Knots
18:51 Gear Up: 189 Knots
18:55 Flaps:1 at 183 Knots
18:55 Flaps:2 at 175 Knots
18:55 Gear Down: 167 Knots
18:57 Flaps:1 at 145 Knots
18:57 Flaps:0 at 145 Knots
18:57 Gear Up: 146 Knots
18:58 Wind:105º@003 Knots Heading: 280º Ground Speed: 184 Knots Altitude 1095 ft
19:03 Flaps:1 at 185 Knots
19:03 Flaps:2 at 165 Knots
19:03 Gear Down: 156 Knots
19:04 TouchDown:Rate -462 ft/min Speed: 140 Knots
19:05 VATSIM:LEAS 081900Z 14003KT 9999 FEW025 13/08 Q1002 NOSIG
19:05 Land
19:05 Wind:093º@003 Knots
19:05 Heading: 111º
19:05 Flight Duration: 01:52
19:05 Landing Weight: 42130 Lbs
19:05 POS N43º 33´ 41´´ W006º 01´ 31´´
19:07 Parking brakes on
19:07 Block to Block Duration: 02:06
19:07 Final Fuel: 2447 Lbls
19:07 Spent Fuel: 3099 Lbls
19:07 Flight Length: 456 NM
19:07 TOD Land Length: 184 NM

Exportar CSV

Powered by Drupal - Modified by Danger4k